Happy Hauler — WDJ5131 — position and weather

sailwx.info

Track history (hours):
 
Tides and Currents Weather Stations Pressure Air Temp Water Temp Dewpoint Dewpoint Depression Visibility Wind Speed Wind Dir Waves Ship Positions

Happy Hauler

Owner: HNY Ferry Fleet LLC, New York, NY. More information available from US FCC via Universal Licensing System and Coast Guard Vessel Documentation Center.

Last reported at 2017-Oct-22 02:06 UTC. Time now 2017-Oct-22 13:33 UTC.
Position N 40°42' W 073°58'.

Length 26 m; draft 2 m.

Type: Passenger vessel. MMSI: 367784630.

Date/timePositionNaut miles runAvg speedWind from/ knotsBaromVisibWave heightAir tempDewpointWater temp
2017-Oct-22 02:06N 40°42' W 073°58'0 1.4
2017-Oct-22 02:00N 40°42' W 073°58'4 8.8
2017-Oct-22 01:31N 40°39' W 074°02'815.9
2017-Oct-22 01:00N 40°34' W 073°53'2 4.6
2017-Oct-22 00:30N 40°34' W 073°56'713.2
2017-Oct-22 00:00N 40°39' W 074°02'0 1.0
2017-Oct-21 23:31N 40°39' W 074°02'2 3.3
2017-Oct-21 23:00N 40°41' W 074°01'4 8.7
2017-Oct-21 22:30N 40°45' W 073°58'3 6.3
2017-Oct-21 22:00N 40°42' W 074°00'1 1.2
2017-Oct-21 21:31N 40°41' W 074°01'4 7.0
2017-Oct-21 21:00N 40°44' W 073°58'1 2.3
2017-Oct-21 20:30N 40°43' W 073°58'611.5
2017-Oct-21 20:00N 40°38' W 074°02'3 6.4
2017-Oct-21 19:30N 40°41' W 074°01'1 2.1
2017-Oct-21 18:59N 40°42' W 073°60'2 4.1
2017-Oct-21 18:30N 40°41' W 074°01'1 1.2
2017-Oct-21 18:00N 40°41' W 074°01'1 3.0
2017-Oct-21 17:30N 40°42' W 073°60'1 2.1
2017-Oct-21 17:00N 40°42' W 074°01'3 6.8
2017-Oct-21 16:30N 40°38' W 074°02'3 6.5
2017-Oct-21 16:00N 40°41' W 074°01'1 1.6
2017-Oct-21 15:30N 40°42' W 074°00'3 5.4
2017-Oct-21 15:00N 40°40' W 074°01'3 5.8
2017-Oct-21 14:30N 40°42' W 073°60'1 0.1
2017-Oct-20 23:03N 40°42' W 073°58'0 0.5
2017-Oct-20 23:00N 40°42' W 073°58'3 5.9
2017-Oct-20 22:30N 40°45' W 073°58'2 3.4
2017-Oct-20 22:00N 40°46' W 073°56'2 5.0
2017-Oct-20 21:30N 40°44' W 073°58'0 0.8
2017-Oct-20 21:01N 40°44' W 073°58'3 4.5
2017-Oct-20 20:23N 40°46' W 073°56'2 5.2
2017-Oct-20 20:00N 40°45' W 073°58'3 6.5
2017-Oct-20 19:30N 40°42' W 074°00'4 8.0
2017-Oct-20 19:00N 40°45' W 073°57'0 0.3
2017-Oct-20 18:30N 40°45' W 073°57'4 7.8
2017-Oct-20 18:00N 40°42' W 074°00'3 6.1
2017-Oct-20 17:30N 40°45' W 073°58'2 3.7
2017-Oct-20 16:59N 40°46' W 073°56'2 4.9
2017-Oct-20 16:30N 40°44' W 073°58'0 0.1
2017-Oct-20 16:00N 40°44' W 073°58'3 4.2
2017-Oct-20 15:24N 40°46' W 073°56'2 5.1
2017-Oct-20 15:00N 40°45' W 073°58'1 0.9
2017-Oct-20 14:00N 40°45' W 073°57'0 0.7
2017-Oct-20 13:30N 40°45' W 073°57'4 7.4
2017-Oct-20 13:00N 40°42' W 074°00'3 6.2
2017-Oct-20 12:30N 40°45' W 073°58'1 2.3
2017-Oct-20 12:00N 40°46' W 073°57'2 3.7
2017-Oct-20 11:30N 40°44' W 073°58'0 0.6
2017-Oct-20 11:01N 40°44' W 073°58'3 5.7
2017-Oct-20 10:30N 40°46' W 073°56'5 8.6
2017-Oct-20 09:58N 40°42' W 073°58'0 0.0
2017-Oct-20 02:12N 40°42' W 073°58'1 6.5
2017-Oct-20 02:01N 40°43' W 073°58'2 3.5
2017-Oct-20 01:30N 40°45' W 073°57'3 6.9
2017-Oct-20 01:01N 40°42' W 074°00'3 7.0
2017-Oct-20 00:30N 40°45' W 073°57'1 1.1
2017-Oct-20 00:00N 40°45' W 073°57'3 6.5
2017-Oct-19 23:30N 40°43' W 073°59'2 4.1
2017-Oct-19 23:00N 40°45' W 073°58'2 4.8
2017-Oct-19 22:30N 40°46' W 073°56'2 4.4
2017-Oct-19 22:00N 40°45' W 073°58'2 4.2
2017-Oct-19 21:31N 40°43' W 073°59'3 6.8
2017-Oct-19 21:00N 40°46' W 073°57'1 2.1
2017-Oct-19 20:30N 40°45' W 073°57'3 7.1
2017-Oct-19 20:00N 40°42' W 074°00'2 3.1
2017-Oct-19 19:30N 40°42' W 073°58'0 0.0
2017-Oct-19 18:00N 40°42' W 073°58'1 1.6
2017-Oct-19 17:30N 40°42' W 073°59'1 1.6
2017-Oct-19 17:01N 40°42' W 074°00'1 2.6
2017-Oct-19 16:30N 40°42' W 073°59'3 5.4
2017-Oct-19 16:00N 40°45' W 073°58'1 1.0
2017-Oct-19 15:30N 40°45' W 073°57'1 1.2
2017-Oct-19 15:00N 40°46' W 073°57'2 4.5
2017-Oct-19 14:31N 40°44' W 073°58'2 3.7
2017-Oct-19 14:00N 40°42' W 073°59'4 7.4
2017-Oct-19 13:31N 40°46' W 073°57'1 1.7
2017-Oct-19 13:00N 40°45' W 073°57'3 7.0
2017-Oct-19 12:30N 40°42' W 074°00'4 7.1
2017-Oct-19 12:01N 40°45' W 073°57'2 3.1
2017-Oct-19 11:30N 40°46' W 073°56'4 9.0
2017-Oct-19 11:00N 40°42' W 073°58'0 0.0
2017-Oct-19 10:30N 40°42' W 073°58'0 0.0
2017-Oct-19 10:00N 40°42' W 073°58'0 0.0
2017-Oct-19 09:30N 40°42' W 073°58'0 0.0
2017-Oct-19 09:00N 40°42' W 073°58'0 0.0
2017-Oct-19 08:30N 40°42' W 073°58'0 0.0
2017-Oct-19 08:00N 40°42' W 073°58'0 0.0
2017-Oct-19 07:30N 40°42' W 073°58'0 0.0
2017-Oct-19 07:00N 40°42' W 073°58'0 0.0
2017-Oct-19 06:30N 40°42' W 073°58'0 0.0
2017-Oct-19 06:00N 40°42' W 073°58'0 0.0
2017-Oct-19 05:30N 40°42' W 073°58'0 0.0
2017-Oct-19 05:00N 40°42' W 073°58'0 0.0
2017-Oct-19 04:30N 40°42' W 073°58'0 0.0
2017-Oct-19 04:00N 40°42' W 073°58'0 0.0
2017-Oct-19 03:30N 40°42' W 073°58'0 0.0
2017-Oct-19 03:00N 40°42' W 073°58'0 0.0
2017-Oct-19 02:30N 40°42' W 073°58'0 0.0
2017-Oct-19 02:00N 40°42' W 073°58'0 0.0
2017-Oct-19 01:30N 40°42' W 073°58'0 0.0
2017-Oct-19 01:00N 40°42' W 073°58'0 0.0
2017-Oct-19 00:30N 40°42' W 073°58'0 0.0
2017-Oct-19 00:00N 40°42' W 073°58'0 0.0
2017-Oct-18 23:30N 40°42' W 073°58'0 0.0
2017-Oct-18 23:00N 40°42' W 073°58'0 0.0
2017-Oct-18 22:30N 40°42' W 073°58'0 0.0
2017-Oct-18 22:00N 40°42' W 073°58'0 0.0
2017-Oct-18 21:30N 40°42' W 073°58'0 0.0
2017-Oct-18 21:00N 40°42' W 073°58'0 0.0
2017-Oct-18 20:30N 40°42' W 073°58'0 0.0
2017-Oct-18 19:40N 40°42' W 073°58'0 0.0
2017-Oct-18 19:31N 40°42' W 073°58'0 0.0
2017-Oct-18 19:01N 40°42' W 073°58'0 0.0
2017-Oct-18 18:31N 40°42' W 073°58'0 0.0
2017-Oct-18 18:01N 40°42' W 073°58'0 0.0
2017-Oct-18 17:30N 40°42' W 073°58'0 0.0
2017-Oct-18 17:00N 40°42' W 073°58'0 0.0
2017-Oct-18 16:31N 40°42' W 073°58'0 0.0
2017-Oct-18 16:00N 40°42' W 073°58'0 0.0
2017-Oct-18 15:30N 40°42' W 073°58'0 0.0
2017-Oct-18 15:01N 40°42' W 073°58'0 0.0
2017-Oct-18 05:23N 40°42' W 073°58'0 0.0
2017-Oct-17 23:03N 40°42' W 073°58'0 0.0
2017-Oct-17 23:01N 40°42' W 073°58'3 5.5
2017-Oct-17 22:31N 40°45' W 073°58'1 1.9
2017-Oct-17 22:00N 40°45' W 073°57'1 2.6
2017-Oct-17 21:30N 40°44' W 073°58'1 2.3
2017-Oct-17 21:00N 40°43' W 073°58'3 6.6
2017-Oct-17 20:30N 40°46' W 073°56'2 3.5
2017-Oct-17 20:00N 40°45' W 073°57'3 6.9
2017-Oct-17 19:30N 40°42' W 074°00'4 8.0
2017-Oct-17 19:00N 40°45' W 073°57'0 0.2
2017-Oct-17 18:30N 40°45' W 073°57'4 8.0
2017-Oct-17 18:00N 40°42' W 074°00'3 6.5
2017-Oct-17 17:30N 40°45' W 073°58'2 3.1
2017-Oct-17 17:00N 40°46' W 073°56'2 4.4
2017-Oct-17 16:31N 40°44' W 073°58'0 0.7
2017-Oct-17 16:00N 40°44' W 073°58'3 5.3
2017-Oct-17 15:29N 40°46' W 073°56'2 3.6
2017-Oct-17 15:00N 40°45' W 073°57'3 6.9
2017-Oct-17 14:30N 40°42' W 074°00'4 7.8
2017-Oct-17 14:00N 40°45' W 073°57'0 0.4
2017-Oct-17 13:30N 40°45' W 073°57'4 7.8
2017-Oct-17 13:00N 40°42' W 074°00'3 6.0
2017-Oct-17 12:30N 40°45' W 073°58'2 4.1
2017-Oct-17 12:00N 40°46' W 073°56'3 5.5
2017-Oct-17 11:30N 40°44' W 073°58'0 0.3
2017-Oct-17 11:00N 40°44' W 073°58'3 5.8
2017-Oct-17 10:30N 40°46' W 073°56'5 9.0
2017-Oct-17 10:00N 40°42' W 073°58'0 0.0
2017-Oct-17 09:30N 40°42' W 073°58'0 0.0
2017-Oct-16 23:14N 40°42' W 073°58'0 0.1
2017-Oct-16 23:01N 40°42' W 073°58'3 5.2
2017-Oct-16 22:30N 40°45' W 073°58'1 2.9
2017-Oct-16 22:00N 40°46' W 073°57'2 3.5
2017-Oct-16 21:30N 40°44' W 073°58'1 2.2
2017-Oct-16 21:00N 40°43' W 073°58'3 6.5
2017-Oct-16 20:30N 40°46' W 073°56'2 3.7
2017-Oct-16 20:00N 40°45' W 073°58'3 6.8
2017-Oct-16 19:31N 40°42' W 074°00'4 7.9
2017-Oct-16 19:00N 40°45' W 073°57'0 0.1
2017-Oct-16 18:30N 40°45' W 073°57'4 8.0
2017-Oct-16 18:00N 40°42' W 074°00'3 6.1
2017-Oct-16 17:30N 40°45' W 073°58'2 3.2
2017-Oct-16 17:00N 40°46' W 073°57'2 5.0
2017-Oct-16 16:31N 40°44' W 073°58'0 0.5
2017-Oct-16 16:01N 40°44' W 073°58'3 6.1
2017-Oct-16 15:30N 40°46' W 073°56'2 3.6
2017-Oct-16 15:00N 40°45' W 073°57'1 0.6
2017-Oct-16 14:00N 40°45' W 073°57'0 0.4
2017-Oct-16 13:30N 40°45' W 073°57'4 7.8
2017-Oct-16 13:00N 40°42' W 074°00'3 6.2
2017-Oct-16 12:30N 40°45' W 073°58'1 2.6
2017-Oct-16 12:00N 40°46' W 073°57'2 3.6
2017-Oct-16 11:30N 40°44' W 073°58'1 1.1
2017-Oct-16 11:00N 40°44' W 073°58'3 5.6
2017-Oct-16 10:30N 40°46' W 073°56'3 6.0
2017-Oct-16 10:01N 40°44' W 073°58'2 0.2
2017-Oct-15 23:47N 40°42' W 073°58'1 3.8
2017-Oct-15 23:31N 40°42' W 073°60'3 5.3
2017-Oct-15 23:00N 40°45' W 073°58'2 4.7
2017-Oct-15 22:31N 40°42' W 073°59'1 2.4
2017-Oct-15 22:00N 40°42' W 074°00'0 0.0
2017-Oct-15 21:31N 40°42' W 074°00'0 0.9
2017-Oct-15 21:01N 40°42' W 073°60'3 5.3
2017-Oct-15 20:30N 40°45' W 073°58'3 5.5
2017-Oct-15 20:00N 40°42' W 073°60'0 0.9
2017-Oct-15 19:30N 40°42' W 074°00'0 0.0
2017-Oct-15 19:01N 40°42' W 074°00'0 0.9
2017-Oct-15 18:30N 40°42' W 073°60'3 5.4
2017-Oct-15 18:00N 40°45' W 073°58'2 4.8
2017-Oct-15 17:31N 40°42' W 073°59'1 2.0
2017-Oct-15 17:00N 40°42' W 074°00'0 0.1
2017-Oct-15 16:30N 40°42' W 074°00'0 0.9
2017-Oct-15 16:00N 40°42' W 073°60'3 5.3
2017-Oct-15 15:30N 40°45' W 073°58'3 5.3
2017-Oct-15 15:00N 40°42' W 073°60'1 1.0
2017-Oct-15 14:00N 40°42' W 073°58'0 0.0
2017-Oct-14 19:48N 40°42' W 073°58'3 9.1
2017-Oct-14 19:30N 40°45' W 073°58'3 5.8
2017-Oct-14 19:00N 40°42' W 073°58'2 3.1
2017-Oct-14 18:30N 40°42' W 074°00'0 0.0
2017-Oct-14 18:00N 40°42' W 074°00'0 0.0
2017-Oct-14 17:30N 40°42' W 074°00'2 0.1
2017-Oct-14 02:07N 40°42' W 073°58'0 0.0
2017-Oct-14 02:00N 40°42' W 073°58'2 3.7
2017-Oct-14 01:30N 40°44' W 073°58'2 4.4
2017-Oct-14 01:00N 40°42' W 073°60'2 3.6
2017-Oct-14 00:30N 40°43' W 073°58'2 4.2
2017-Oct-14 00:00N 40°45' W 073°57'2 4.6
2017-Oct-13 23:30N 40°43' W 073°58'2 3.7
2017-Oct-13 23:00N 40°42' W 074°00'3 5.7
2017-Oct-13 22:30N 40°45' W 073°58'2 4.1
2017-Oct-13 22:00N 40°43' W 073°58'2 3.3
2017-Oct-13 21:30N 40°42' W 074°00'2 4.5
2017-Oct-13 21:00N 40°44' W 073°58'0 0.5
2017-Oct-13 20:30N 40°43' W 073°58'2 4.3
2017-Oct-13 20:00N 40°42' W 074°00'1 2.8
2017-Oct-13 19:30N 40°41' W 074°01'1 2.7
2017-Oct-13 19:00N 40°42' W 074°00'3 5.1
2017-Oct-13 18:30N 40°44' W 073°58'1 1.3
2017-Oct-13 18:00N 40°43' W 073°58'1 2.2
2017-Oct-13 17:30N 40°42' W 073°58'0 0.5
2017-Oct-13 17:01N 40°42' W 073°58'0 0.0
2017-Oct-13 16:30N 40°42' W 073°58'0 0.0
2017-Oct-13 16:00N 40°42' W 073°58'0 0.0
2017-Oct-13 15:30N 40°42' W 073°58'0 0.0
2017-Oct-13 15:00N 40°42' W 073°58'0 0.8
2017-Oct-13 14:30N 40°42' W 073°59'0 0.4
2017-Oct-13 14:00N 40°43' W 073°59'3 6.2
2017-Oct-13 13:30N 40°45' W 073°57'1 1.3
2017-Oct-13 13:00N 40°45' W 073°57'3 7.0
2017-Oct-13 12:30N 40°42' W 074°00'3 7.0
2017-Oct-13 12:00N 40°45' W 073°57'2 3.4
2017-Oct-13 11:30N 40°43' W 073°58'1 0.1
2017-Oct-12 23:17N 40°42' W 073°58'311.0
2017-Oct-12 23:00N 40°45' W 073°57'1 1.5
2017-Oct-12 22:30N 40°45' W 073°58'3 5.7
2017-Oct-12 22:00N 40°42' W 074°00'4 8.1
2017-Oct-12 21:30N 40°45' W 073°57'0 0.3
2017-Oct-12 21:00N 40°45' W 073°57'4 7.8
2017-Oct-12 20:30N 40°42' W 074°00'3 6.1
2017-Oct-12 20:00N 40°45' W 073°58'2 3.3
2017-Oct-12 19:30N 40°46' W 073°57'2 4.7
2017-Oct-12 19:00N 40°44' W 073°58'0 0.2
2017-Oct-12 18:30N 40°44' W 073°58'3 5.6
2017-Oct-12 18:00N 40°46' W 073°56'2 3.5
2017-Oct-12 17:30N 40°45' W 073°58'3 6.7
2017-Oct-12 17:00N 40°42' W 074°00'4 8.0
2017-Oct-12 16:30N 40°45' W 073°57'0 0.2
2017-Oct-12 16:00N 40°45' W 073°57'4 7.9
2017-Oct-12 15:30N 40°42' W 074°00'3 7.0
2017-Oct-12 15:00N 40°45' W 073°57'2 3.4
2017-Oct-12 14:30N 40°46' W 073°56'1 2.3
2017-Oct-12 14:00N 40°45' W 073°57'3 6.3
2017-Oct-12 13:30N 40°43' W 073°59'2 4.4
2017-Oct-12 13:00N 40°45' W 073°58'2 4.3
2017-Oct-12 12:30N 40°46' W 073°56'2 4.5
2017-Oct-12 12:00N 40°45' W 073°58'2 3.3
2017-Oct-12 11:30N 40°43' W 073°58'3 5.6
2017-Oct-12 11:00N 40°45' W 073°57'3 6.9
2017-Oct-12 10:30N 40°42' W 073°59'0 0.6
2017-Oct-12 10:00N 40°42' W 073°58'  
Track history (hours):
 
Tides and Currents Weather Stations Pressure Air Temp Water Temp Dewpoint Dewpoint Depression Visibility Wind Speed Wind Dir Waves Ship Positions

Happy Hauler

Owner: HNY Ferry Fleet LLC, New York, NY. More information available from US FCC via Universal Licensing System and Coast Guard Vessel Documentation Center.

Last reported at 2017-Oct-22 02:06 UTC. Time now 2017-Oct-22 13:33 UTC.
Position N 40°42' W 073°58'.

Length 26 m; draft 2 m.

Type: Passenger vessel. MMSI: 367784630.

Date/timePositionNaut miles runAvg speedWind from/ knotsBaromVisibWave heightAir tempDewpointWater temp
2017-Oct-22 02:06N 40°42' W 073°58'0 1.4
2017-Oct-22 02:00N 40°42' W 073°58'4 8.8
2017-Oct-22 01:31N 40°39' W 074°02'815.9
2017-Oct-22 01:00N 40°34' W 073°53'2 4.6
2017-Oct-22 00:30N 40°34' W 073°56'713.2
2017-Oct-22 00:00N 40°39' W 074°02'0 1.0
2017-Oct-21 23:31N 40°39' W 074°02'2 3.3
2017-Oct-21 23:00N 40°41' W 074°01'4 8.7
2017-Oct-21 22:30N 40°45' W 073°58'3 6.3
2017-Oct-21 22:00N 40°42' W 074°00'1 1.2
2017-Oct-21 21:31N 40°41' W 074°01'4 7.0
2017-Oct-21 21:00N 40°44' W 073°58'1 2.3
2017-Oct-21 20:30N 40°43' W 073°58'611.5
2017-Oct-21 20:00N 40°38' W 074°02'3 6.4
2017-Oct-21 19:30N 40°41' W 074°01'1 2.1
2017-Oct-21 18:59N 40°42' W 073°60'2 4.1
2017-Oct-21 18:30N 40°41' W 074°01'1 1.2
2017-Oct-21 18:00N 40°41' W 074°01'1 3.0
2017-Oct-21 17:30N 40°42' W 073°60'1 2.1
2017-Oct-21 17:00N 40°42' W 074°01'3 6.8
2017-Oct-21 16:30N 40°38' W 074°02'3 6.5
2017-Oct-21 16:00N 40°41' W 074°01'1 1.6
2017-Oct-21 15:30N 40°42' W 074°00'3 5.4
2017-Oct-21 15:00N 40°40' W 074°01'3 5.8
2017-Oct-21 14:30N 40°42' W 073°60'1 0.1
2017-Oct-20 23:03N 40°42' W 073°58'0 0.5
2017-Oct-20 23:00N 40°42' W 073°58'3 5.9
2017-Oct-20 22:30N 40°45' W 073°58'2 3.4
2017-Oct-20 22:00N 40°46' W 073°56'2 5.0
2017-Oct-20 21:30N 40°44' W 073°58'0 0.8
2017-Oct-20 21:01N 40°44' W 073°58'3 4.5
2017-Oct-20 20:23N 40°46' W 073°56'2 5.2
2017-Oct-20 20:00N 40°45' W 073°58'3 6.5
2017-Oct-20 19:30N 40°42' W 074°00'4 8.0
2017-Oct-20 19:00N 40°45' W 073°57'0 0.3
2017-Oct-20 18:30N 40°45' W 073°57'4 7.8
2017-Oct-20 18:00N 40°42' W 074°00'3 6.1
2017-Oct-20 17:30N 40°45' W 073°58'2 3.7
2017-Oct-20 16:59N 40°46' W 073°56'2 4.9
2017-Oct-20 16:30N 40°44' W 073°58'0 0.1
2017-Oct-20 16:00N 40°44' W 073°58'3 4.2
2017-Oct-20 15:24N 40°46' W 073°56'2 5.1
2017-Oct-20 15:00N 40°45' W 073°58'1 0.9
2017-Oct-20 14:00N 40°45' W 073°57'0 0.7
2017-Oct-20 13:30N 40°45' W 073°57'4 7.4
2017-Oct-20 13:00N 40°42' W 074°00'3 6.2
2017-Oct-20 12:30N 40°45' W 073°58'1 2.3
2017-Oct-20 12:00N 40°46' W 073°57'2 3.7
2017-Oct-20 11:30N 40°44' W 073°58'0 0.6
2017-Oct-20 11:01N 40°44' W 073°58'3 5.7
2017-Oct-20 10:30N 40°46' W 073°56'5 8.6
2017-Oct-20 09:58N 40°42' W 073°58'0 0.0
2017-Oct-20 02:12N 40°42' W 073°58'1 6.5
2017-Oct-20 02:01N 40°43' W 073°58'2 3.5
2017-Oct-20 01:30N 40°45' W 073°57'3 6.9
2017-Oct-20 01:01N 40°42' W 074°00'3 7.0
2017-Oct-20 00:30N 40°45' W 073°57'1 1.1
2017-Oct-20 00:00N 40°45' W 073°57'3 6.5
2017-Oct-19 23:30N 40°43' W 073°59'2 4.1
2017-Oct-19 23:00N 40°45' W 073°58'2 4.8
2017-Oct-19 22:30N 40°46' W 073°56'2 4.4
2017-Oct-19 22:00N 40°45' W 073°58'2 4.2
2017-Oct-19 21:31N 40°43' W 073°59'3 6.8
2017-Oct-19 21:00N 40°46' W 073°57'1 2.1
2017-Oct-19 20:30N 40°45' W 073°57'3 7.1
2017-Oct-19 20:00N 40°42' W 074°00'2 3.1
2017-Oct-19 19:30N 40°42' W 073°58'0 0.0
2017-Oct-19 18:00N 40°42' W 073°58'1 1.6
2017-Oct-19 17:30N 40°42' W 073°59'1 1.6
2017-Oct-19 17:01N 40°42' W 074°00'1 2.6
2017-Oct-19 16:30N 40°42' W 073°59'3 5.4
2017-Oct-19 16:00N 40°45' W 073°58'1 1.0
2017-Oct-19 15:30N 40°45' W 073°57'1 1.2
2017-Oct-19 15:00N 40°46' W 073°57'2 4.5
2017-Oct-19 14:31N 40°44' W 073°58'2 3.7
2017-Oct-19 14:00N 40°42' W 073°59'4 7.4
2017-Oct-19 13:31N 40°46' W 073°57'1 1.7
2017-Oct-19 13:00N 40°45' W 073°57'3 7.0
2017-Oct-19 12:30N 40°42' W 074°00'4 7.1
2017-Oct-19 12:01N 40°45' W 073°57'2 3.1
2017-Oct-19 11:30N 40°46' W 073°56'4 9.0
2017-Oct-19 11:00N 40°42' W 073°58'0 0.0
2017-Oct-19 10:30N 40°42' W 073°58'0 0.0
2017-Oct-19 10:00N 40°42' W 073°58'0 0.0
2017-Oct-19 09:30N 40°42' W 073°58'0 0.0
2017-Oct-19 09:00N 40°42' W 073°58'0 0.0
2017-Oct-19 08:30N 40°42' W 073°58'0 0.0
2017-Oct-19 08:00N 40°42' W 073°58'0 0.0
2017-Oct-19 07:30N 40°42' W 073°58'0 0.0
2017-Oct-19 07:00N 40°42' W 073°58'0 0.0
2017-Oct-19 06:30N 40°42' W 073°58'0 0.0
2017-Oct-19 06:00N 40°42' W 073°58'0 0.0
2017-Oct-19 05:30N 40°42' W 073°58'0 0.0
2017-Oct-19 05:00N 40°42' W 073°58'0 0.0
2017-Oct-19 04:30N 40°42' W 073°58'0 0.0
2017-Oct-19 04:00N 40°42' W 073°58'0 0.0
2017-Oct-19 03:30N 40°42' W 073°58'0 0.0
2017-Oct-19 03:00N 40°42' W 073°58'0 0.0
2017-Oct-19 02:30N 40°42' W 073°58'0 0.0
2017-Oct-19 02:00N 40°42' W 073°58'0 0.0
2017-Oct-19 01:30N 40°42' W 073°58'0 0.0
2017-Oct-19 01:00N 40°42' W 073°58'0 0.0
2017-Oct-19 00:30N 40°42' W 073°58'0 0.0
2017-Oct-19 00:00N 40°42' W 073°58'0 0.0
2017-Oct-18 23:30N 40°42' W 073°58'0 0.0
2017-Oct-18 23:00N 40°42' W 073°58'0 0.0
2017-Oct-18 22:30N 40°42' W 073°58'0 0.0
2017-Oct-18 22:00N 40°42' W 073°58'0 0.0
2017-Oct-18 21:30N 40°42' W 073°58'0 0.0
2017-Oct-18 21:00N 40°42' W 073°58'0 0.0
2017-Oct-18 20:30N 40°42' W 073°58'0 0.0
2017-Oct-18 19:40N 40°42' W 073°58'0 0.0
2017-Oct-18 19:31N 40°42' W 073°58'0 0.0
2017-Oct-18 19:01N 40°42' W 073°58'0 0.0
2017-Oct-18 18:31N 40°42' W 073°58'0 0.0
2017-Oct-18 18:01N 40°42' W 073°58'0 0.0
2017-Oct-18 17:30N 40°42' W 073°58'0 0.0
2017-Oct-18 17:00N 40°42' W 073°58'0 0.0
2017-Oct-18 16:31N 40°42' W 073°58'0 0.0
2017-Oct-18 16:00N 40°42' W 073°58'0 0.0
2017-Oct-18 15:30N 40°42' W 073°58'0 0.0
2017-Oct-18 15:01N 40°42' W 073°58'0 0.0
2017-Oct-18 05:23N 40°42' W 073°58'0 0.0
2017-Oct-17 23:03N 40°42' W 073°58'0 0.0
2017-Oct-17 23:01N 40°42' W 073°58'3 5.5
2017-Oct-17 22:31N 40°45' W 073°58'1 1.9
2017-Oct-17 22:00N 40°45' W 073°57'1 2.6
2017-Oct-17 21:30N 40°44' W 073°58'1 2.3
2017-Oct-17 21:00N 40°43' W 073°58'3 6.6
2017-Oct-17 20:30N 40°46' W 073°56'2 3.5
2017-Oct-17 20:00N 40°45' W 073°57'3 6.9
2017-Oct-17 19:30N 40°42' W 074°00'4 8.0
2017-Oct-17 19:00N 40°45' W 073°57'0 0.2
2017-Oct-17 18:30N 40°45' W 073°57'4 8.0
2017-Oct-17 18:00N 40°42' W 074°00'3 6.5
2017-Oct-17 17:30N 40°45' W 073°58'2 3.1
2017-Oct-17 17:00N 40°46' W 073°56'2 4.4
2017-Oct-17 16:31N 40°44' W 073°58'0 0.7
2017-Oct-17 16:00N 40°44' W 073°58'3 5.3
2017-Oct-17 15:29N 40°46' W 073°56'2 3.6
2017-Oct-17 15:00N 40°45' W 073°57'3 6.9
2017-Oct-17 14:30N 40°42' W 074°00'4 7.8
2017-Oct-17 14:00N 40°45' W 073°57'0 0.4
2017-Oct-17 13:30N 40°45' W 073°57'4 7.8
2017-Oct-17 13:00N 40°42' W 074°00'3 6.0
2017-Oct-17 12:30N 40°45' W 073°58'2 4.1
2017-Oct-17 12:00N 40°46' W 073°56'3 5.5
2017-Oct-17 11:30N 40°44' W 073°58'0 0.3
2017-Oct-17 11:00N 40°44' W 073°58'3 5.8
2017-Oct-17 10:30N 40°46' W 073°56'5 9.0
2017-Oct-17 10:00N 40°42' W 073°58'0 0.0
2017-Oct-17 09:30N 40°42' W 073°58'0 0.0
2017-Oct-16 23:14N 40°42' W 073°58'0 0.1
2017-Oct-16 23:01N 40°42' W 073°58'3 5.2
2017-Oct-16 22:30N 40°45' W 073°58'1 2.9
2017-Oct-16 22:00N 40°46' W 073°57'2 3.5
2017-Oct-16 21:30N 40°44' W 073°58'1 2.2
2017-Oct-16 21:00N 40°43' W 073°58'3 6.5
2017-Oct-16 20:30N 40°46' W 073°56'2 3.7
2017-Oct-16 20:00N 40°45' W 073°58'3 6.8
2017-Oct-16 19:31N 40°42' W 074°00'4 7.9
2017-Oct-16 19:00N 40°45' W 073°57'0 0.1
2017-Oct-16 18:30N 40°45' W 073°57'4 8.0
2017-Oct-16 18:00N 40°42' W 074°00'3 6.1
2017-Oct-16 17:30N 40°45' W 073°58'2 3.2
2017-Oct-16 17:00N 40°46' W 073°57'2 5.0
2017-Oct-16 16:31N 40°44' W 073°58'0 0.5
2017-Oct-16 16:01N 40°44' W 073°58'3 6.1
2017-Oct-16 15:30N 40°46' W 073°56'2 3.6
2017-Oct-16 15:00N 40°45' W 073°57'1 0.6
2017-Oct-16 14:00N 40°45' W 073°57'0 0.4
2017-Oct-16 13:30N 40°45' W 073°57'4 7.8
2017-Oct-16 13:00N 40°42' W 074°00'3 6.2
2017-Oct-16 12:30N 40°45' W 073°58'1 2.6
2017-Oct-16 12:00N 40°46' W 073°57'2 3.6
2017-Oct-16 11:30N 40°44' W 073°58'1 1.1
2017-Oct-16 11:00N 40°44' W 073°58'3 5.6
2017-Oct-16 10:30N 40°46' W 073°56'3 6.0
2017-Oct-16 10:01N 40°44' W 073°58'2 0.2
2017-Oct-15 23:47N 40°42' W 073°58'1 3.8
2017-Oct-15 23:31N 40°42' W 073°60'3 5.3
2017-Oct-15 23:00N 40°45' W 073°58'2 4.7
2017-Oct-15 22:31N 40°42' W 073°59'1 2.4
2017-Oct-15 22:00N 40°42' W 074°00'0 0.0
2017-Oct-15 21:31N 40°42' W 074°00'0 0.9
2017-Oct-15 21:01N 40°42' W 073°60'3 5.3
2017-Oct-15 20:30N 40°45' W 073°58'3 5.5
2017-Oct-15 20:00N 40°42' W 073°60'0 0.9
2017-Oct-15 19:30N 40°42' W 074°00'0 0.0
2017-Oct-15 19:01N 40°42' W 074°00'0 0.9
2017-Oct-15 18:30N 40°42' W 073°60'3 5.4
2017-Oct-15 18:00N 40°45' W 073°58'2 4.8
2017-Oct-15 17:31N 40°42' W 073°59'1 2.0
2017-Oct-15 17:00N 40°42' W 074°00'0 0.1
2017-Oct-15 16:30N 40°42' W 074°00'0 0.9
2017-Oct-15 16:00N 40°42' W 073°60'3 5.3
2017-Oct-15 15:30N 40°45' W 073°58'3 5.3
2017-Oct-15 15:00N 40°42' W 073°60'1 1.0
2017-Oct-15 14:00N 40°42' W 073°58'0 0.0
2017-Oct-14 19:48N 40°42' W 073°58'3 9.1
2017-Oct-14 19:30N 40°45' W 073°58'3 5.8
2017-Oct-14 19:00N 40°42' W 073°58'2 3.1
2017-Oct-14 18:30N 40°42' W 074°00'0 0.0
2017-Oct-14 18:00N 40°42' W 074°00'0 0.0
2017-Oct-14 17:30N 40°42' W 074°00'2 0.1
2017-Oct-14 02:07N 40°42' W 073°58'0 0.0
2017-Oct-14 02:00N 40°42' W 073°58'2 3.7
2017-Oct-14 01:30N 40°44' W 073°58'2 4.4
2017-Oct-14 01:00N 40°42' W 073°60'2 3.6
2017-Oct-14 00:30N 40°43' W 073°58'2 4.2
2017-Oct-14 00:00N 40°45' W 073°57'2 4.6
2017-Oct-13 23:30N 40°43' W 073°58'2 3.7
2017-Oct-13 23:00N 40°42' W 074°00'3 5.7
2017-Oct-13 22:30N 40°45' W 073°58'2 4.1
2017-Oct-13 22:00N 40°43' W 073°58'2 3.3
2017-Oct-13 21:30N 40°42' W 074°00'2 4.5
2017-Oct-13 21:00N 40°44' W 073°58'0 0.5
2017-Oct-13 20:30N 40°43' W 073°58'2 4.3
2017-Oct-13 20:00N 40°42' W 074°00'1 2.8
2017-Oct-13 19:30N 40°41' W 074°01'1 2.7
2017-Oct-13 19:00N 40°42' W 074°00'3 5.1
2017-Oct-13 18:30N 40°44' W 073°58'1 1.3
2017-Oct-13 18:00N 40°43' W 073°58'1 2.2
2017-Oct-13 17:30N 40°42' W 073°58'0 0.5
2017-Oct-13 17:01N 40°42' W 073°58'0 0.0
2017-Oct-13 16:30N 40°42' W 073°58'0 0.0
2017-Oct-13 16:00N 40°42' W 073°58'0 0.0
2017-Oct-13 15:30N 40°42' W 073°58'0 0.0
2017-Oct-13 15:00N 40°42' W 073°58'0 0.8
2017-Oct-13 14:30N 40°42' W 073°59'0 0.4
2017-Oct-13 14:00N 40°43' W 073°59'3 6.2
2017-Oct-13 13:30N 40°45' W 073°57'1 1.3
2017-Oct-13 13:00N 40°45' W 073°57'3 7.0
2017-Oct-13 12:30N 40°42' W 074°00'3 7.0
2017-Oct-13 12:00N 40°45' W 073°57'2 3.4
2017-Oct-13 11:30N 40°43' W 073°58'1 0.1
2017-Oct-12 23:17N 40°42' W 073°58'311.0
2017-Oct-12 23:00N 40°45' W 073°57'1 1.5
2017-Oct-12 22:30N 40°45' W 073°58'3 5.7
2017-Oct-12 22:00N 40°42' W 074°00'4 8.1
2017-Oct-12 21:30N 40°45' W 073°57'0 0.3
2017-Oct-12 21:00N 40°45' W 073°57'4 7.8
2017-Oct-12 20:30N 40°42' W 074°00'3 6.1
2017-Oct-12 20:00N 40°45' W 073°58'2 3.3
2017-Oct-12 19:30N 40°46' W 073°57'2 4.7
2017-Oct-12 19:00N 40°44' W 073°58'0 0.2
2017-Oct-12 18:30N 40°44' W 073°58'3 5.6
2017-Oct-12 18:00N 40°46' W 073°56'2 3.5
2017-Oct-12 17:30N 40°45' W 073°58'3 6.7
2017-Oct-12 17:00N 40°42' W 074°00'4 8.0
2017-Oct-12 16:30N 40°45' W 073°57'0 0.2
2017-Oct-12 16:00N 40°45' W 073°57'4 7.9
2017-Oct-12 15:30N 40°42' W 074°00'3 7.0
2017-Oct-12 15:00N 40°45' W 073°57'2 3.4
2017-Oct-12 14:30N 40°46' W 073°56'1 2.3
2017-Oct-12 14:00N 40°45' W 073°57'3 6.3
2017-Oct-12 13:30N 40°43' W 073°59'2 4.4
2017-Oct-12 13:00N 40°45' W 073°58'2 4.3
2017-Oct-12 12:30N 40°46' W 073°56'2 4.5
2017-Oct-12 12:00N 40°45' W 073°58'2 3.3
2017-Oct-12 11:30N 40°43' W 073°58'3 5.6
2017-Oct-12 11:00N 40°45' W 073°57'3 6.9
2017-Oct-12 10:30N 40°42' W 073°59'0 0.6
2017-Oct-12 10:00N 40°42' W 073°58'  

Dump ship's entire track history